Time;durP1;ratioP1;P1;durP2;ratioP2;P2;SDS_P1;SDS_P2;PMS_P1;PMS_P2;Temp;Humidity;BMP_temperature;BMP_pressure;BME280_temperature;BME280_humidity;BME280_pressure;Samples;Min_cycle;Max_cycle;Signal;HPM_P1;HPM_P2
2022/03/07 00:00:10;;;;;;;11.40;10.30;;;1.70;99.90;;;;;;5047620;28;20422;-85
2022/03/07 00:02:35;;;;;;;11.27;10.23;;;1.70;99.90;;;;;;5048663;28;20372;-84
2022/03/07 00:05:01;;;;;;;10.57;9.57;;;1.80;99.90;;;;;;5048685;28;20790;-84
2022/03/07 00:07:27;;;;;;;10.63;9.45;;;1.70;99.90;;;;;;5047357;28;20858;-84
2022/03/07 00:09:52;;;;;;;10.95;9.85;;;1.70;99.90;;;;;;5048840;28;20402;-84
2022/03/07 00:12:18;;;;;;;11.23;10.13;;;1.70;99.90;;;;;;5047572;28;20408;-84
2022/03/07 00:14:43;;;;;;;10.43;9.27;;;1.70;99.90;;;;;;5047756;28;20418;-85
2022/03/07 00:17:09;;;;;;;11.33;10.17;;;1.60;99.90;;;;;;5048835;28;20368;-84
2022/03/07 00:19:34;;;;;;;10.30;9.40;;;1.60;99.90;;;;;;5049012;28;20384;-84
2022/03/07 00:22:00;;;;;;;11.07;9.98;;;1.70;99.90;;;;;;5048757;28;20396;-84
2022/03/07 00:24:25;;;;;;;10.47;9.47;;;1.70;99.90;;;;;;5049176;28;20467;-84
2022/03/07 00:26:51;;;;;;;10.60;9.50;;;1.60;99.90;;;;;;5068820;28;20377;-85
2022/03/07 00:29:17;;;;;;;10.65;9.60;;;1.60;99.90;;;;;;5049220;28;20401;-85
2022/03/07 00:31:45;;;;;;;10.50;9.40;;;1.50;99.90;;;;;;5063144;28;20793;-84
2022/03/07 00:34:10;;;;;;;10.20;9.30;;;1.60;99.90;;;;;;5031098;28;20379;-85
2022/03/07 00:36:36;;;;;;;11.27;10.10;;;1.50;99.90;;;;;;5034176;28;20403;-85
2022/03/07 00:39:02;;;;;;;10.32;9.32;;;1.40;99.90;;;;;;5030513;28;20398;-84
2022/03/07 00:41:28;;;;;;;10.63;9.63;;;1.30;99.90;;;;;;5048119;28;20406;-84
2022/03/07 00:43:54;;;;;;;11.80;10.07;;;1.20;99.90;;;;;;5030638;28;20455;-84
2022/03/07 00:46:19;;;;;;;11.63;10.32;;;1.00;99.90;;;;;;5049024;28;20502;-84
2022/03/07 00:48:45;;;;;;;11.43;10.32;;;0.90;99.90;;;;;;5056961;28;20879;-84
2022/03/07 00:51:10;;;;;;;11.38;10.27;;;0.90;99.90;;;;;;5069221;28;20402;-84
2022/03/07 00:53:36;;;;;;;11.33;10.23;;;0.80;99.90;;;;;;5054339;28;20399;-85
2022/03/07 00:56:02;;;;;;;11.57;10.47;;;0.70;99.90;;;;;;5031118;28;20380;-85
2022/03/07 00:58:27;;;;;;;10.43;9.50;;;0.70;99.90;;;;;;5049418;28;20398;-84
2022/03/07 01:00:53;;;;;;;11.00;10.00;;;0.60;99.90;;;;;;5030898;28;20914;-85
2022/03/07 01:03:19;;;;;;;10.82;9.82;;;0.60;99.90;;;;;;5049066;28;20372;-84
2022/03/07 01:05:45;;;;;;;11.85;10.70;;;0.50;99.90;;;;;;5048602;28;20426;-84
2022/03/07 01:08:11;;;;;;;11.40;10.35;;;0.50;99.90;;;;;;5060658;28;20444;-84
2022/03/07 01:10:38;;;;;;;11.57;10.48;;;0.40;99.90;;;;;;5069168;28;20378;-84
2022/03/07 01:13:04;;;;;;;11.43;10.37;;;0.40;99.90;;;;;;5068613;28;20949;-84
2022/03/07 01:15:30;;;;;;;12.83;11.60;;;0.40;99.90;;;;;;5068528;28;20427;-84
2022/03/07 01:17:59;;;;;;;12.00;10.90;;;0.40;99.90;;;;;;5039893;28;20399;-84
2022/03/07 01:20:25;;;;;;;13.23;11.93;;;0.40;99.90;;;;;;5047466;28;20383;-84
2022/03/07 01:22:51;;;;;;;13.10;11.75;;;0.40;99.90;;;;;;5047148;28;20391;-85
2022/03/07 01:25:17;;;;;;;12.03;10.87;;;0.40;99.90;;;;;;5049906;28;20383;-83
2022/03/07 01:27:43;;;;;;;12.82;11.43;;;0.40;99.90;;;;;;5068343;28;20379;-84
2022/03/07 01:30:09;;;;;;;12.32;11.18;;;0.40;99.90;;;;;;5068029;28;20390;-85
2022/03/07 01:32:35;;;;;;;13.30;11.43;;;0.40;99.90;;;;;;5068522;28;20409;-84
2022/03/07 01:35:00;;;;;;;12.43;11.23;;;0.40;99.90;;;;;;5040840;28;20402;-84
2022/03/07 01:37:26;;;;;;;12.65;11.45;;;0.40;99.90;;;;;;5051576;28;20387;-84
2022/03/07 01:39:52;;;;;;;12.37;11.17;;;0.40;99.90;;;;;;5034110;28;20380;-84
2022/03/07 01:42:17;;;;;;;12.63;11.43;;;0.40;99.90;;;;;;5033822;28;20513;-85
2022/03/07 01:44:43;;;;;;;12.50;11.30;;;0.40;99.90;;;;;;5039998;28;20471;-84
2022/03/07 01:47:08;;;;;;;13.13;11.82;;;0.40;99.90;;;;;;5072194;28;20404;-85
2022/03/07 01:49:34;;;;;;;12.57;11.27;;;0.70;99.90;;;;;;5053874;28;20406;-84
2022/03/07 01:52:00;;;;;;;12.38;11.18;;;0.70;99.90;;;;;;5071983;28;20879;-84
2022/03/07 01:54:26;;;;;;;12.57;11.37;;;0.70;99.90;;;;;;5046832;28;20387;-84
2022/03/07 01:56:53;;;;;;;12.18;10.88;;;0.60;99.90;;;;;;5035213;28;20384;-84
2022/03/07 01:59:21;;;;;;;12.95;11.75;;;0.70;99.90;;;;;;5053149;28;21079;-84
2022/03/07 02:01:47;;;;;;;11.90;10.77;;;0.70;99.90;;;;;;5052215;28;20400;-85
2022/03/07 02:04:14;;;;;;;12.60;11.32;;;0.70;99.90;;;;;;5039040;28;20386;-84
2022/03/07 02:06:40;;;;;;;11.90;10.80;;;0.70;99.90;;;;;;5052728;28;20400;-83
2022/03/07 02:09:07;;;;;;;11.05;10.05;;;0.70;99.90;;;;;;5070920;28;20450;-84
2022/03/07 02:11:34;;;;;;;12.27;11.13;;;0.70;99.90;;;;;;5052839;28;20496;-84
2022/03/07 02:14:22;;;;;;;12.35;11.15;;;0.80;99.90;;;;;;5048616;28;20391;-84
2022/03/07 02:16:49;;;;;;;12.07;10.90;;;0.80;99.90;;;;;;5033138;28;20805;-84
2022/03/07 02:19:15;;;;;;;11.60;10.52;;;0.80;99.90;;;;;;5037471;28;20392;-84
2022/03/07 02:21:49;;;;;;;12.10;10.90;;;0.80;99.90;;;;;;5032783;28;20392;-84
2022/03/07 02:24:18;;;;;;;11.00;10.00;;;0.90;99.90;;;;;;5052269;28;20433;-84
2022/03/07 02:26:59;;;;;;;11.80;10.43;;;0.90;99.90;;;;;;5033367;28;20391;-84
2022/03/07 02:29:25;;;;;;;11.70;10.60;;;0.90;99.90;;;;;;5033909;28;20396;-84
2022/03/07 02:31:51;;;;;;;10.98;9.88;;;0.80;99.90;;;;;;5050275;28;20396;-84
2022/03/07 02:34:17;;;;;;;11.60;10.40;;;0.70;99.90;;;;;;5061057;28;20393;-84
2022/03/07 02:36:44;;;;;;;11.20;10.10;;;0.60;99.90;;;;;;5052039;28;20378;-84
2022/03/07 02:39:10;;;;;;;11.25;10.20;;;0.50;99.90;;;;;;5052840;28;20792;-85
2022/03/07 02:41:37;;;;;;;12.70;11.40;;;0.50;99.90;;;;;;5052879;28;20578;-85
2022/03/07 02:44:02;;;;;;;11.50;10.40;;;0.50;99.90;;;;;;5056489;28;20461;-84
2022/03/07 02:46:28;;;;;;;11.68;10.57;;;0.50;99.90;;;;;;5032396;28;20789;-84
2022/03/07 02:48:54;;;;;;;11.37;10.27;;;0.50;99.90;;;;;;5031974;28;20388;-85
2022/03/07 02:51:19;;;;;;;11.30;10.20;;;0.50;99.90;;;;;;5050565;28;20404;-84
2022/03/07 02:53:45;;;;;;;11.17;10.10;;;0.60;99.90;;;;;;5042126;28;20386;-84
2022/03/07 02:56:10;;;;;;;11.38;10.38;;;0.60;99.90;;;;;;5052348;28;20395;-84
2022/03/07 02:58:36;;;;;;;11.38;10.38;;;0.60;99.90;;;;;;5071302;28;20374;-84
2022/03/07 03:01:02;;;;;;;11.90;10.80;;;0.70;99.90;;;;;;5070548;28;20465;-84
2022/03/07 03:03:27;;;;;;;12.40;11.20;;;0.70;99.90;;;;;;5066201;28;20382;-84
2022/03/07 03:05:54;;;;;;;12.20;11.10;;;0.70;99.90;;;;;;5071037;28;20384;-85
2022/03/07 03:08:23;;;;;;;13.90;12.55;;;0.80;99.90;;;;;;5070151;28;20914;-85
2022/03/07 03:10:50;;;;;;;14.93;13.43;;;0.70;99.90;;;;;;5070555;28;20378;-85
2022/03/07 03:13:18;;;;;;;13.73;12.43;;;0.70;99.90;;;;;;5063598;28;20400;-85
2022/03/07 03:15:45;;;;;;;14.27;12.52;;;0.70;99.90;;;;;;5033041;28;20395;-84
2022/03/07 03:18:11;;;;;;;15.23;13.65;;;0.70;99.90;;;;;;5050761;28;20473;-84
2022/03/07 03:20:36;;;;;;;14.77;13.27;;;0.70;99.90;;;;;;5050968;28;20411;-84
2022/03/07 03:23:02;;;;;;;14.37;12.77;;;0.60;99.90;;;;;;5049876;28;20897;-84
2022/03/07 03:25:28;;;;;;;14.95;13.45;;;0.50;99.90;;;;;;5032092;28;20400;-85
2022/03/07 03:27:53;;;;;;;14.30;13.00;;;0.40;99.90;;;;;;5050295;28;20399;-84
2022/03/07 03:30:19;;;;;;;16.33;13.73;;;0.40;99.90;;;;;;5032278;28;20394;-84
2022/03/07 03:32:44;;;;;;;15.17;13.60;;;0.30;99.90;;;;;;5055236;28;20481;-84
2022/03/07 03:35:10;;;;;;;13.73;12.43;;;0.20;99.90;;;;;;5070333;28;20386;-84
2022/03/07 03:37:36;;;;;;;14.50;13.03;;;0.10;99.90;;;;;;5052493;28;20417;-84
2022/03/07 03:40:04;;;;;;;15.07;13.68;;;0.00;99.90;;;;;;5070774;28;20381;-84
2022/03/07 03:42:30;;;;;;;14.63;13.13;;;-0.10;99.90;;;;;;5067223;28;20392;-84
2022/03/07 03:44:55;;;;;;;14.52;13.07;;;-0.20;99.90;;;;;;5050612;28;20380;-84
2022/03/07 03:47:21;;;;;;;14.17;12.80;;;-0.20;99.90;;;;;;5032700;28;20483;-84
2022/03/07 03:49:47;;;;;;;14.27;12.87;;;-0.30;99.90;;;;;;5032282;28;20465;-85
2022/03/07 03:52:12;;;;;;;14.10;12.70;;;-0.40;99.90;;;;;;5032576;28;20418;-84
2022/03/07 03:54:38;;;;;;;13.93;12.52;;;-0.40;99.90;;;;;;5052205;28;20385;-84
2022/03/07 03:57:04;;;;;;;14.50;13.10;;;-0.60;99.90;;;;;;5051566;28;20439;-84
2022/03/07 03:59:31;;;;;;;14.68;13.18;;;-0.60;99.90;;;;;;5049739;28;20379;-84
2022/03/07 04:01:57;;;;;;;14.88;13.43;;;0.10;99.90;;;;;;5031727;28;20384;-84
2022/03/07 04:04:23;;;;;;;15.00;13.63;;;-0.80;99.90;;;;;;5049381;28;20397;-84
2022/03/07 04:06:48;;;;;;;15.32;13.82;;;-0.70;99.90;;;;;;5051465;28;20420;-85
2022/03/07 04:09:19;;;;;;;15.10;13.57;;;-0.80;99.90;;;;;;5069360;28;20386;-84
2022/03/07 04:11:45;;;;;;;15.88;14.27;;;-0.80;99.90;;;;;;5041365;28;20460;-84
2022/03/07 04:14:11;;;;;;;14.53;13.07;;;-0.70;99.90;;;;;;5049218;28;20463;-84
2022/03/07 04:16:38;;;;;;;16.05;14.57;;;-0.80;99.90;;;;;;5049169;28;20803;-84
2022/03/07 04:19:06;;;;;;;15.07;13.53;;;-0.90;99.90;;;;;;5050019;28;20888;-84
2022/03/07 04:21:32;;;;;;;15.73;14.13;;;-0.70;99.90;;;;;;5043493;28;21007;-85
2022/03/07 04:23:58;;;;;;;14.88;13.38;;;-0.80;99.90;;;;;;5030438;28;20403;-84
2022/03/07 04:26:23;;;;;;;15.38;13.80;;;-0.90;99.90;;;;;;5039458;28;20385;-85
2022/03/07 04:28:49;;;;;;;15.20;13.60;;;-0.90;99.90;;;;;;5050666;28;20371;-84
2022/03/07 04:31:14;;;;;;;16.17;13.87;;;-0.90;99.90;;;;;;5062957;28;20936;-84
2022/03/07 04:33:40;;;;;;;15.20;13.60;;;-0.90;99.90;;;;;;5048545;28;20409;-84
2022/03/07 04:36:06;;;;;;;14.90;13.40;;;-1.00;99.90;;;;;;5048667;28;20378;-85
2022/03/07 04:38:32;;;;;;;15.02;13.43;;;-1.00;99.90;;;;;;5048362;28;20473;-84
2022/03/07 04:40:58;;;;;;;15.02;13.52;;;-1.20;99.90;;;;;;5033075;28;20958;-85
2022/03/07 04:43:23;;;;;;;15.63;14.05;;;-1.00;99.90;;;;;;5067913;28;20447;-85
2022/03/07 04:45:52;;;;;;;15.98;14.40;;;-1.20;99.90;;;;;;5066909;28;20855;-84
2022/03/07 04:48:18;;;;;;;15.25;13.77;;;-1.30;99.90;;;;;;5049552;28;20396;-85
2022/03/07 04:50:44;;;;;;;16.70;15.02;;;-1.40;99.90;;;;;;5037318;28;20481;-84
2022/03/07 04:53:09;;;;;;;16.60;15.02;;;-1.30;99.90;;;;;;5050696;28;20481;-85
2022/03/07 04:55:35;;;;;;;15.93;14.33;;;-1.40;99.90;;;;;;5067790;28;20374;-84
2022/03/07 04:58:01;;;;;;;16.47;14.87;;;-1.30;99.90;;;;;;5068413;28;20481;-85
2022/03/07 05:00:26;;;;;;;16.63;14.93;;;-1.50;99.90;;;;;;5065886;28;20947;-85
2022/03/07 05:02:53;;;;;;;16.80;15.20;;;-1.60;99.90;;;;;;5030381;28;20457;-85
2022/03/07 05:05:19;;;;;;;16.30;14.70;;;-1.50;99.90;;;;;;5030217;28;20398;-85
2022/03/07 05:07:44;;;;;;;18.45;16.55;;;-1.60;99.90;;;;;;5051335;28;20740;-85
2022/03/07 05:10:10;;;;;;;22.20;19.80;;;-1.70;99.90;;;;;;5063101;28;20435;-84
2022/03/07 05:12:36;;;;;;;21.88;19.02;;;-1.70;99.90;;;;;;5034221;28;20766;-84
2022/03/07 05:15:02;;;;;;;20.50;17.13;;;-1.20;99.90;;;;;;5051492;28;20390;-85
2022/03/07 05:17:28;;;;;;;19.00;16.15;;;-1.60;99.90;;;;;;5052776;28;20454;-84
2022/03/07 05:19:54;;;;;;;19.10;17.00;;;-1.70;99.90;;;;;;5047317;28;20969;-84
2022/03/07 05:22:19;;;;;;;19.13;17.05;;;-1.70;99.90;;;;;;5050296;28;20372;-85
2022/03/07 05:24:45;;;;;;;20.35;16.98;;;-1.80;99.90;;;;;;5052525;28;20393;-84
2022/03/07 05:27:13;;;;;;;18.95;16.95;;;;;;;;;;5071227;28;20438;-85
2022/03/07 05:29:42;;;;;;;24.73;17.08;;;;;;;;;;5053573;28;20405;-84
2022/03/07 05:32:08;;;;;;;22.27;16.60;;;;;;;;;;5053431;28;21004;-84
2022/03/07 05:34:34;;;;;;;18.70;15.55;;;-1.70;99.90;;;;;;5051275;28;20393;-84
2022/03/07 05:36:59;;;;;;;18.25;15.52;;;-1.60;99.90;;;;;;5051156;28;20384;-84
2022/03/07 05:39:25;;;;;;;18.20;14.97;;;-1.30;99.90;;;;;;5051259;28;20402;-85
2022/03/07 05:41:51;;;;;;;19.13;15.37;;;-2.00;99.90;;;;;;5033492;28;20391;-84
2022/03/07 05:44:16;;;;;;;19.07;16.20;;;-1.30;99.90;;;;;;5051321;28;20372;-84
2022/03/07 05:46:42;;;;;;;19.55;15.85;;;-1.60;99.90;;;;;;5070109;28;20481;-86
2022/03/07 05:49:07;;;;;;;18.30;15.95;;;-2.20;99.90;;;;;;5053147;28;20484;-85
2022/03/07 05:51:33;;;;;;;19.25;15.90;;;-1.80;99.90;;;;;;5071245;28;20447;-85
2022/03/07 05:53:59;;;;;;;18.67;15.25;;;-2.20;99.90;;;;;;5071264;28;20413;-85
2022/03/07 05:56:24;;;;;;;18.13;14.97;;;-1.80;99.90;;;;;;5056459;28;20749;-85
2022/03/07 05:58:50;;;;;;;17.50;15.43;;;-1.70;99.90;;;;;;5050830;28;20382;-85
2022/03/07 06:01:15;;;;;;;19.00;16.27;;;-1.70;99.90;;;;;;5038881;28;20801;-85
2022/03/07 06:03:42;;;;;;;16.73;15.07;;;-1.70;99.90;;;;;;5033398;28;20478;-85
2022/03/07 06:06:07;;;;;;;16.87;15.03;;;-1.70;99.90;;;;;;5033382;28;20376;-84
2022/03/07 06:08:33;;;;;;;21.13;15.63;;;-1.70;99.90;;;;;;5051126;28;20376;-84
2022/03/07 06:10:58;;;;;;;15.93;14.27;;;-1.60;99.90;;;;;;5050634;28;20436;-85
2022/03/07 06:13:24;;;;;;;18.80;15.70;;;-1.60;99.90;;;;;;5037535;28;20915;-85
2022/03/07 06:15:50;;;;;;;16.90;14.75;;;-1.30;99.90;;;;;;5053447;28;20386;-85
2022/03/07 06:18:15;;;;;;;17.05;15.35;;;-1.50;99.90;;;;;;5070889;28;20446;-86
2022/03/07 06:20:41;;;;;;;17.58;15.73;;;-1.50;99.90;;;;;;5062473;28;20455;-85
2022/03/07 06:23:07;;;;;;;16.92;15.18;;;-1.40;99.90;;;;;;5059424;28;20383;-85
2022/03/07 06:25:34;;;;;;;18.33;16.03;;;-1.30;99.90;;;;;;5070110;28;20446;-85
2022/03/07 06:28:04;;;;;;;16.55;14.85;;;-1.20;99.90;;;;;;5042067;28;20407;-86
2022/03/07 06:30:30;;;;;;;16.88;14.57;;;-1.10;99.90;;;;;;5049513;28;20419;-86
2022/03/07 06:32:56;;;;;;;16.52;13.25;;;-1.00;99.90;;;;;;5042808;28;20429;-86
2022/03/07 06:35:22;;;;;;;14.43;12.70;;;-1.00;99.90;;;;;;5061070;28;20388;-85
2022/03/07 06:37:49;;;;;;;15.43;12.82;;;-0.70;99.90;;;;;;5057094;28;20400;-84
2022/03/07 06:40:16;;;;;;;16.10;13.47;;;-0.50;99.90;;;;;;5062680;28;20399;-85
2022/03/07 06:42:41;;;;;;;15.60;12.83;;;-0.30;99.90;;;;;;5061738;28;20375;-85
2022/03/07 06:45:08;;;;;;;13.47;11.87;;;-0.10;99.90;;;;;;5061717;28;20457;-85
2022/03/07 06:47:33;;;;;;;16.52;12.40;;;0.00;99.90;;;;;;5061567;28;21007;-86
2022/03/07 06:49:59;;;;;;;16.20;13.10;;;0.40;99.90;;;;;;5060097;28;20448;-86
2022/03/07 06:52:26;;;;;;;15.85;11.65;;;0.40;99.90;;;;;;5061113;28;20396;-84
2022/03/07 06:54:52;;;;;;;12.90;10.77;;;0.60;99.90;;;;;;5060667;28;20403;-85
2022/03/07 06:57:21;;;;;;;13.88;11.38;;;0.80;99.90;;;;;;5060215;28;20457;-84
2022/03/07 06:59:50;;;;;;;14.15;11.52;;;0.90;99.90;;;;;;5058061;28;20392;-85
2022/03/07 07:02:18;;;;;;;15.82;11.60;;;1.00;99.90;;;;;;5058919;28;20376;-85
2022/03/07 07:04:47;;;;;;;12.70;10.98;;;1.10;99.90;;;;;;5057778;28;20390;-84
2022/03/07 07:07:14;;;;;;;13.35;10.98;;;1.20;99.90;;;;;;5056675;28;20412;-85
2022/03/07 07:09:41;;;;;;;19.02;14.93;;;1.30;99.90;;;;;;5054604;28;20376;-84
2022/03/07 07:12:07;;;;;;;19.30;16.98;;;1.40;99.90;;;;;;5053379;28;20408;-84
2022/03/07 07:14:33;;;;;;;17.98;15.02;;;1.50;99.90;;;;;;5054460;28;20901;-84
2022/03/07 07:16:59;;;;;;;14.63;12.73;;;1.50;99.90;;;;;;5056069;28;20485;-84
2022/03/07 07:19:24;;;;;;;14.35;11.90;;;1.50;99.90;;;;;;5047561;28;20382;-85
2022/03/07 07:21:50;;;;;;;14.23;12.55;;;1.60;99.90;;;;;;5041996;28;20904;-85
2022/03/07 07:24:16;;;;;;;14.45;12.00;;;1.90;99.90;;;;;;5039593;28;20371;-84
2022/03/07 07:26:41;;;;;;;14.50;12.97;;;2.00;99.90;;;;;;5047683;28;20479;-84
2022/03/07 07:29:07;;;;;;;14.53;13.13;;;2.20;99.90;;;;;;5047916;28;20391;-84
2022/03/07 07:31:32;;;;;;;15.50;12.90;;;2.40;99.90;;;;;;5040706;28;20434;-82
2022/03/07 07:33:58;;;;;;;16.73;14.98;;;2.60;99.90;;;;;;5057642;28;20387;-82
2022/03/07 07:36:24;;;;;;;17.83;15.63;;;2.40;99.90;;;;;;5033521;28;20402;-83
2022/03/07 07:38:49;;;;;;;19.95;17.42;;;2.30;99.90;;;;;;5032965;28;20430;-84
2022/03/07 07:41:15;;;;;;;17.27;15.48;;;2.30;99.90;;;;;;5030618;28;20408;-84
2022/03/07 07:43:41;;;;;;;19.70;16.47;;;2.30;99.90;;;;;;5049643;28;20872;-84
2022/03/07 07:46:07;;;;;;;19.45;15.95;;;2.40;99.90;;;;;;5050813;28;20387;-83
2022/03/07 07:48:32;;;;;;;19.03;16.63;;;2.50;99.90;;;;;;5040026;28;20386;-84
2022/03/07 07:50:58;;;;;;;19.93;16.47;;;2.70;99.90;;;;;;5058902;28;20398;-82
2022/03/07 07:53:23;;;;;;;20.77;17.20;;;2.80;99.90;;;;;;5078414;28;20424;-83
2022/03/07 07:55:49;;;;;;;18.73;16.00;;;2.90;99.90;;;;;;5056817;28;20388;-84
2022/03/07 07:58:15;;;;;;;18.38;16.38;;;2.90;99.90;;;;;;5084100;28;20387;-83
2022/03/07 08:00:40;;;;;;;18.87;16.03;;;2.90;99.90;;;;;;5052013;28;20427;-82
2022/03/07 08:03:07;;;;;;;17.90;15.97;;;2.90;99.90;;;;;;5042809;28;20372;-82
2022/03/07 08:05:33;;;;;;;19.65;16.55;;;2.80;99.90;;;;;;5048920;28;20387;-82
2022/03/07 08:07:59;;;;;;;20.57;17.27;;;2.70;99.90;;;;;;5046620;28;20383;-83
2022/03/07 08:10:24;;;;;;;19.55;16.35;;;2.80;99.90;;;;;;5047722;28;20383;-83
2022/03/07 08:12:53;;;;;;;17.93;15.63;;;2.90;99.90;;;;;;5029242;28;20403;-83
2022/03/07 08:15:19;;;;;;;17.67;15.35;;;2.80;99.90;;;;;;5048263;28;20376;-83
2022/03/07 08:17:49;;;;;;;18.53;15.73;;;3.10;99.90;;;;;;5049169;28;20471;-83
2022/03/07 08:20:17;;;;;;;20.25;16.25;;;3.20;99.90;;;;;;5062154;28;20390;-82
2022/03/07 08:22:43;;;;;;;16.23;14.52;;;3.20;99.90;;;;;;5051788;28;20867;-82
2022/03/07 08:25:10;;;;;;;16.38;13.95;;;3.50;99.90;;;;;;5067943;28;20379;-83
2022/03/07 08:27:35;;;;;;;16.70;14.65;;;3.70;99.90;;;;;;5056085;28;20486;-82
2022/03/07 08:30:07;;;;;;;17.83;14.33;;;3.60;99.90;;;;;;5048565;28;20417;-83
2022/03/07 08:32:33;;;;;;;18.67;15.45;;;3.60;99.90;;;;;;5064095;28;20404;-82
2022/03/07 08:35:00;;;;;;;16.73;14.88;;;3.50;99.90;;;;;;5048542;28;20410;-83
2022/03/07 08:37:25;;;;;;;18.20;15.17;;;3.60;99.90;;;;;;5058697;28;20548;-82
2022/03/07 08:39:51;;;;;;;17.90;15.57;;;3.80;99.90;;;;;;5046415;28;21044;-83
2022/03/07 08:42:17;;;;;;;17.05;15.25;;;3.70;99.90;;;;;;5033739;28;20414;-83
2022/03/07 08:44:43;;;;;;;19.70;16.23;;;3.80;99.90;;;;;;5050388;28;20381;-82
2022/03/07 08:47:09;;;;;;;18.45;15.82;;;3.80;99.90;;;;;;5054896;28;20472;-83
2022/03/07 08:49:35;;;;;;;17.77;15.27;;;3.70;99.90;;;;;;5056606;28;20373;-82
2022/03/07 08:52:01;;;;;;;17.60;15.23;;;3.60;99.90;;;;;;5071093;28;20425;-83
2022/03/07 08:54:26;;;;;;;17.37;14.73;;;3.90;99.90;;;;;;5035961;28;20426;-83
2022/03/07 08:56:52;;;;;;;18.07;15.40;;;4.00;99.90;;;;;;5035893;28;20403;-83
2022/03/07 08:59:17;;;;;;;16.98;14.85;;;4.10;99.90;;;;;;5056482;28;20437;-82
2022/03/07 09:01:43;;;;;;;21.00;15.90;;;4.30;99.90;;;;;;5072902;28;20389;-82
2022/03/07 09:04:08;;;;;;;18.30;16.33;;;4.50;99.90;;;;;;5076326;28;20435;-82
2022/03/07 09:06:34;;;;;;;18.77;16.77;;;4.30;99.90;;;;;;5076013;28;21148;-82
2022/03/07 09:09:00;;;;;;;16.52;14.65;;;4.30;99.90;;;;;;5075533;28;20946;-82
2022/03/07 09:11:25;;;;;;;18.10;15.38;;;5.20;99.90;;;;;;5056574;28;20885;-84
2022/03/07 09:13:51;;;;;;;16.47;14.77;;;4.80;99.90;;;;;;5057323;28;20443;-83
2022/03/07 09:16:17;;;;;;;16.50;14.80;;;4.70;99.90;;;;;;5074736;28;20852;-83
2022/03/07 09:18:42;;;;;;;18.25;15.48;;;5.10;99.90;;;;;;5065037;28;20485;-84
2022/03/07 09:21:08;;;;;;;15.77;14.15;;;5.30;99.90;;;;;;5034708;28;20711;-82
2022/03/07 09:23:37;;;;;;;16.30;14.57;;;5.20;99.90;;;;;;5061575;28;20436;-82
2022/03/07 09:26:05;;;;;;;15.52;13.68;;;5.20;99.90;;;;;;5053707;28;20414;-83
2022/03/07 09:28:33;;;;;;;15.38;13.73;;;5.30;99.90;;;;;;5054111;28;20398;-83
2022/03/07 09:30:59;;;;;;;16.13;14.15;;;4.40;99.90;;;;;;5071879;28;20397;-83
2022/03/07 09:33:24;;;;;;;15.48;13.95;;;4.90;99.90;;;;;;5065308;28;20405;-83
2022/03/07 09:35:50;;;;;;;15.63;14.02;;;4.20;99.90;;;;;;5072373;28;20370;-83
2022/03/07 09:38:16;;;;;;;15.15;13.52;;;3.90;99.90;;;;;;5073268;28;20392;-83
2022/03/07 09:40:42;;;;;;;17.02;15.32;;;3.70;99.90;;;;;;5091938;28;20373;-82
2022/03/07 09:43:08;;;;;;;18.17;15.73;;;3.50;99.90;;;;;;5090423;28;20885;-83
2022/03/07 09:45:34;;;;;;;18.13;16.27;;;3.50;99.90;;;;;;5092252;28;20381;-84
2022/03/07 09:47:59;;;;;;;18.67;16.77;;;3.50;99.90;;;;;;5091204;28;20376;-82
2022/03/07 09:50:25;;;;;;;18.20;16.33;;;3.40;99.90;;;;;;5078889;28;20382;-83
2022/03/07 09:52:54;;;;;;;19.27;17.23;;;3.40;99.90;;;;;;5073007;28;20764;-83
2022/03/07 09:55:23;;;;;;;18.60;16.67;;;3.70;99.90;;;;;;5056853;28;20732;-82
2022/03/07 09:57:48;;;;;;;19.85;17.75;;;3.70;99.90;;;;;;5056060;28;20394;-82
2022/03/07 10:00:16;;;;;;;19.35;17.40;;;3.40;99.90;;;;;;5066984;28;20436;-83
2022/03/07 10:03:09;;;;;;;18.73;16.83;;;3.50;99.90;;;;;;5076168;28;20388;-82
2022/03/07 10:05:38;;;;;;;19.63;17.63;;;3.40;99.90;;;;;;5082715;28;20385;-84
2022/03/07 10:08:05;;;;;;;19.85;17.83;;;3.40;99.90;;;;;;5060964;28;20386;-82
2022/03/07 10:10:43;;;;;;;18.88;16.98;;;3.50;99.90;;;;;;5072729;28;20367;-82
2022/03/07 10:13:11;;;;;;;19.05;17.08;;;3.60;99.90;;;;;;5054504;28;20768;-82
2022/03/07 10:15:38;;;;;;;19.58;17.48;;;3.80;99.90;;;;;;5085242;28;20401;-82
2022/03/07 10:18:05;;;;;;;19.85;17.75;;;3.70;99.90;;;;;;5074656;28;20371;-82
2022/03/07 10:20:30;;;;;;;19.55;17.50;;;3.60;99.90;;;;;;5075307;28;20384;-82
2022/03/07 10:23:00;;;;;;;19.40;17.40;;;3.60;99.90;;;;;;5056485;28;20602;-82
2022/03/07 10:25:31;;;;;;;21.17;18.50;;;3.90;99.90;;;;;;5073929;28;20366;-82
2022/03/07 10:28:00;;;;;;;21.15;18.85;;;4.10;99.90;;;;;;5087896;28;20426;-83
2022/03/07 10:30:32;;;;;;;19.25;17.25;;;4.40;99.90;;;;;;5069874;28;20384;-83
2022/03/07 10:33:03;;;;;;;19.10;17.00;;;4.70;99.90;;;;;;5072251;28;20492;-82
2022/03/07 10:35:30;;;;;;;19.33;17.33;;;4.50;99.90;;;;;;5076224;28;20399;-82
2022/03/07 10:38:05;;;;;;;19.55;17.00;;;4.60;99.90;;;;;;5076579;28;20384;-83
2022/03/07 10:40:33;;;;;;;19.23;17.13;;;4.50;99.90;;;;;;5055369;28;20385;-82
2022/03/07 10:43:01;;;;;;;21.08;18.88;;;4.60;99.90;;;;;;5067485;28;20479;-83
2022/03/07 10:45:28;;;;;;;19.23;16.15;;;4.80;99.90;;;;;;5086035;28;20461;-82
2022/03/07 10:48:03;;;;;;;18.83;16.87;;;5.30;99.90;;;;;;5076023;28;20386;-83
2022/03/07 10:50:29;;;;;;;17.85;15.95;;;4.90;99.90;;;;;;5073884;28;20385;-81
2022/03/07 10:53:00;;;;;;;18.63;16.67;;;5.10;99.90;;;;;;5074527;28;20471;-83
2022/03/07 10:55:29;;;;;;;17.48;15.68;;;5.00;99.90;;;;;;5080710;28;20377;-83
2022/03/07 10:58:12;;;;;;;18.08;15.93;;;5.20;99.90;;;;;;5098074;28;20420;-81
2022/03/07 11:00:58;;;;;;;17.55;15.70;;;5.40;99.90;;;;;;5080137;28;20386;-84
2022/03/07 11:03:30;;;;;;;16.52;14.55;;;6.20;99.90;;;;;;5095920;28;20374;-84
2022/03/07 11:05:57;;;;;;;16.00;14.30;;;6.00;99.90;;;;;;5064692;28;20412;-83
2022/03/07 11:08:23;;;;;;;15.63;13.60;;;6.00;99.90;;;;;;5039574;28;20386;-83
2022/03/07 11:10:52;;;;;;;15.70;13.85;;;6.20;99.90;;;;;;5047886;28;20486;-83
2022/03/07 11:13:19;;;;;;;17.65;14.60;;;6.10;99.90;;;;;;5034101;28;20410;-84
2022/03/07 11:15:46;;;;;;;18.50;16.60;;;6.20;99.90;;;;;;5033533;28;20398;-83
2022/03/07 11:18:14;;;;;;;18.73;16.83;;;6.30;99.90;;;;;;5060040;28;20483;-84
2022/03/07 11:20:42;;;;;;;15.65;14.00;;;6.60;99.90;;;;;;5050451;28;20451;-84
2022/03/07 11:23:12;;;;;;;14.90;13.40;;;6.60;99.90;;;;;;5052070;28;20617;-83
2022/03/07 11:25:41;;;;;;;16.88;15.00;;;6.80;99.90;;;;;;5045314;28;20392;-84
2022/03/07 11:28:07;;;;;;;16.50;14.73;;;6.50;99.90;;;;;;5027593;28;20392;-83
2022/03/07 11:30:36;;;;;;;16.63;14.82;;;6.50;99.90;;;;;;5031175;28;21244;-84
2022/03/07 11:33:34;;;;;;;17.03;14.97;;;6.80;99.90;;;;;;5029487;28;20756;-84
2022/03/07 11:36:02;;;;;;;14.52;13.02;;;6.90;99.90;;;;;;5031219;28;20405;-83
2022/03/07 11:38:31;;;;;;;14.87;12.90;;;6.90;99.90;;;;;;5043657;28;20399;-83
2022/03/07 11:41:07;;;;;;;17.48;15.55;;;6.90;99.90;;;;;;5026718;28;20394;-83
2022/03/07 11:43:46;;;;;;;13.13;11.30;;;6.90;99.90;;;;;;5027016;28;21127;-84
2022/03/07 11:46:29;;;;;;;13.63;11.23;;;7.00;99.90;;;;;;5027849;28;20472;-84
2022/03/07 11:48:55;;;;;;;12.07;10.80;;;7.10;99.90;;;;;;5057525;28;20384;-84
2022/03/07 11:51:26;;;;;;;10.38;9.23;;;7.10;99.90;;;;;;5027102;28;20718;-84
2022/03/07 11:53:53;;;;;;;12.30;9.48;;;7.00;99.90;;;;;;5049380;28;20497;-84
2022/03/07 11:56:24;;;;;;;10.73;9.32;;;7.10;99.90;;;;;;5045545;28;20372;-83
2022/03/07 11:58:54;;;;;;;10.23;8.98;;;7.30;99.90;;;;;;5044944;28;20426;-85
2022/03/07 12:01:22;;;;;;;10.30;9.15;;;7.30;99.90;;;;;;5026231;28;20394;-83
2022/03/07 12:03:48;;;;;;;15.27;10.15;;;7.30;99.90;;;;;;5044081;28;20467;-83
2022/03/07 12:06:16;;;;;;;10.82;8.27;;;7.40;99.90;;;;;;5025629;28;20388;-82
2022/03/07 12:08:49;;;;;;;9.55;8.55;;;7.40;99.90;;;;;;5024280;28;21830;-85
2022/03/07 12:11:31;;;;;;;11.07;8.30;;;7.30;99.90;;;;;;5044842;28;20378;-84
2022/03/07 12:14:06;;;;;;;10.52;8.27;;;7.30;99.90;;;;;;5046798;28;20511;-84
2022/03/07 12:16:40;;;;;;;10.57;8.48;;;7.30;99.90;;;;;;5030461;28;20416;-83
2022/03/07 12:19:13;;;;;;;10.13;8.00;;;7.60;99.90;;;;;;5031451;28;20398;-84
2022/03/07 12:21:43;;;;;;;9.52;7.95;;;7.90;99.90;;;;;;5025039;28;21259;-83
2022/03/07 12:24:14;;;;;;;12.65;8.52;;;8.00;99.90;;;;;;5027658;28;20402;-84
2022/03/07 12:26:47;;;;;;;9.00;7.50;;;8.00;99.90;;;;;;5048966;28;20458;-83
2022/03/07 12:29:13;;;;;;;9.98;7.57;;;8.00;99.90;;;;;;5049495;28;20764;-84
2022/03/07 12:31:46;;;;;;;10.13;8.32;;;8.00;99.90;;;;;;5026553;28;20892;-84
2022/03/07 12:34:12;;;;;;;11.40;7.10;;;8.00;99.90;;;;;;5047659;28;20378;-83